createdAt,value
2023-04-09T00:00:49.012Z,0.00
2023-04-09T00:01:49.084Z,0.00
2023-04-09T00:02:49.114Z,0.00
2023-04-09T00:03:49.140Z,0.00
2023-04-09T00:04:49.186Z,0.00
2023-04-09T00:05:49.072Z,0.00
2023-04-09T00:06:49.094Z,0.00
2023-04-09T00:07:49.144Z,2.23
2023-04-09T00:08:49.299Z,22.34
2023-04-09T00:09:49.182Z,25.00
2023-04-09T00:10:49.193Z,25.00
2023-04-09T00:11:49.193Z,25.00
2023-04-09T00:12:49.238Z,23.93
2023-04-09T00:13:49.234Z,26.61
2023-04-09T00:14:49.264Z,25.52
2023-04-09T00:15:49.279Z,25.00
2023-04-09T00:16:49.300Z,23.07
2023-04-09T00:17:49.379Z,25.99
2023-04-09T00:18:49.562Z,25.03
2023-04-09T00:19:49.402Z,28.60
2023-04-09T00:20:49.410Z,33.40
2023-04-09T00:21:49.426Z,25.00
2023-04-09T00:22:49.452Z,27.06
2023-04-09T00:23:49.481Z,27.94
2023-04-09T00:24:49.506Z,27.15
2023-04-09T00:25:49.524Z,33.94
2023-04-09T00:26:49.576Z,26.93
2023-04-09T00:27:49.676Z,25.00
2023-04-09T00:28:49.911Z,25.00
2023-04-09T00:29:49.635Z,26.04
2023-04-09T00:30:49.655Z,29.86
2023-04-09T00:31:49.734Z,28.54
2023-04-09T00:32:49.732Z,25.00
2023-04-09T00:33:50.208Z,25.00
2023-04-09T00:34:49.755Z,36.46
2023-04-09T00:35:49.838Z,28.57
2023-04-09T00:36:49.821Z,29.60
2023-04-09T00:37:49.825Z,27.80
2023-04-09T00:38:50.454Z,30.76
2023-04-09T00:39:50.256Z,32.17
2023-04-09T00:40:50.252Z,25.21
2023-04-09T00:41:50.787Z,30.24
2023-04-09T00:42:50.280Z,30.56
2023-04-09T00:43:50.276Z,25.00
2023-04-09T00:44:50.262Z,33.26
2023-04-09T00:45:50.310Z,32.38
2023-04-09T00:46:50.251Z,27.26
2023-04-09T00:47:50.288Z,29.94
2023-04-09T00:48:50.669Z,36.82
2023-04-09T00:49:50.346Z,28.34
2023-04-09T00:50:50.257Z,28.57
2023-04-09T00:51:50.263Z,28.12
2023-04-09T00:52:50.267Z,25.00
2023-04-09T00:53:50.269Z,28.97
2023-04-09T00:54:50.258Z,31.16
2023-04-09T00:55:50.309Z,26.97
2023-04-09T00:56:50.308Z,33.06
2023-04-09T00:57:50.335Z,26.81
2023-04-09T00:58:50.740Z,29.37
2023-04-09T00:59:50.387Z,30.20
2023-04-09T01:00:50.482Z,27.10
2023-04-09T01:01:50.469Z,30.13
2023-04-09T01:02:50.567Z,29.81
2023-04-09T01:03:50.502Z,26.54
2023-04-09T01:04:50.512Z,27.58
2023-04-09T01:05:50.551Z,27.37
2023-04-09T01:06:50.589Z,25.00
2023-04-09T01:07:50.597Z,34.84
2023-04-09T01:08:51.130Z,32.55
2023-04-09T01:09:50.658Z,28.93
2023-04-09T01:10:50.688Z,33.37
2023-04-09T01:11:50.725Z,25.00
2023-04-09T01:12:50.757Z,30.72
2023-04-09T01:13:50.791Z,29.26
2023-04-09T01:14:50.852Z,25.11
2023-04-09T01:15:50.848Z,40.91
2023-04-09T01:16:51.317Z,29.86
2023-04-09T01:17:51.333Z,32.53
2023-04-09T01:18:51.658Z,32.56
2023-04-09T01:19:51.277Z,34.57
2023-04-09T01:20:51.269Z,30.61
2023-04-09T01:21:51.274Z,34.03
2023-04-09T01:22:51.273Z,31.03
2023-04-09T01:23:51.274Z,33.07
2023-04-09T01:24:51.269Z,30.04
2023-04-09T01:25:51.282Z,29.82
2023-04-09T01:26:51.798Z,37.65
2023-04-09T01:27:51.834Z,30.52
2023-04-09T01:28:51.549Z,29.32
2023-04-09T01:29:51.827Z,29.71
2023-04-09T01:30:51.382Z,33.19
2023-04-09T01:31:52.298Z,31.59
2023-04-09T01:32:51.407Z,29.07
2023-04-09T01:33:51.435Z,27.42
2023-04-09T01:34:52.299Z,34.99
2023-04-09T01:35:51.540Z,33.42
2023-04-09T01:36:51.557Z,32.67
2023-04-09T01:37:51.591Z,27.95
2023-04-09T01:38:51.835Z,30.26
2023-04-09T01:39:51.666Z,29.88
2023-04-09T01:40:51.716Z,32.08
2023-04-09T01:41:51.752Z,34.65
2023-04-09T01:42:51.774Z,27.46
2023-04-09T01:43:51.816Z,28.59
2023-04-09T01:44:51.855Z,26.50
2023-04-09T01:45:51.927Z,31.27
2023-04-09T01:46:51.932Z,37.86
2023-04-09T01:47:52.016Z,33.54
2023-04-09T01:48:52.214Z,37.19
2023-04-09T01:49:52.015Z,30.13
2023-04-09T01:50:52.042Z,31.36
2023-04-09T01:51:52.076Z,32.46
2023-04-09T01:52:52.102Z,29.68
2023-04-09T01:53:52.132Z,34.82
2023-04-09T01:54:52.156Z,34.54
2023-04-09T01:55:52.197Z,29.54
2023-04-09T01:56:52.224Z,29.17
2023-04-09T01:57:52.266Z,27.34
2023-04-09T01:58:52.728Z,28.37
2023-04-09T01:59:52.327Z,32.74
2023-04-09T02:00:52.354Z,31.11
2023-04-09T02:01:52.466Z,31.98
2023-04-09T02:02:52.581Z,31.03
2023-04-09T02:03:52.555Z,31.28
2023-04-09T02:04:52.494Z,28.11
2023-04-09T02:05:52.514Z,26.02
2023-04-09T02:06:52.569Z,32.14
2023-04-09T02:07:52.572Z,33.89
2023-04-09T02:08:52.845Z,27.55
2023-04-09T02:09:52.640Z,36.11
2023-04-09T02:10:52.665Z,31.51
2023-04-09T02:11:52.692Z,34.84
2023-04-09T02:12:52.735Z,36.97
2023-04-09T02:13:52.773Z,32.41
2023-04-09T02:14:52.790Z,32.02
2023-04-09T02:15:52.873Z,36.10
2023-04-09T02:16:52.865Z,29.14
2023-04-09T02:17:52.930Z,30.78
2023-04-09T02:18:53.156Z,35.05
2023-04-09T02:19:52.959Z,31.08
2023-04-09T02:20:52.992Z,30.22
2023-04-09T02:21:53.017Z,32.25
2023-04-09T02:22:53.051Z,31.27
2023-04-09T02:23:53.078Z,32.27
2023-04-09T02:24:53.116Z,35.76
2023-04-09T02:25:53.148Z,29.14
2023-04-09T02:26:53.191Z,32.69
2023-04-09T02:27:53.247Z,36.61
2023-04-09T02:28:53.698Z,34.13
2023-04-09T02:29:53.269Z,32.03
2023-04-09T02:30:53.320Z,33.19
2023-04-09T02:31:53.339Z,33.75
2023-04-09T02:32:53.398Z,29.96
2023-04-09T02:33:53.407Z,33.65
2023-04-09T02:34:53.451Z,33.00
2023-04-09T02:35:53.480Z,32.85
2023-04-09T02:36:53.483Z,36.15
2023-04-09T02:37:53.512Z,38.01
2023-04-09T02:38:53.727Z,31.13
2023-04-09T02:39:53.584Z,36.70
2023-04-09T02:40:53.620Z,39.22
2023-04-09T02:41:53.650Z,34.55
2023-04-09T02:42:53.685Z,33.83
2023-04-09T02:43:53.774Z,33.66
2023-04-09T02:44:53.745Z,36.58
2023-04-09T02:45:53.772Z,33.74
2023-04-09T02:46:53.798Z,38.07
2023-04-09T02:47:54.394Z,36.36
2023-04-09T02:48:54.034Z,32.02
2023-04-09T02:49:53.882Z,27.82
2023-04-09T02:50:53.947Z,35.91
2023-04-09T02:51:53.959Z,32.10
2023-04-09T02:52:53.982Z,31.72
2023-04-09T02:53:54.033Z,32.27
2023-04-09T02:54:54.054Z,28.72
2023-04-09T02:55:54.084Z,31.57
2023-04-09T02:56:54.843Z,34.32
2023-04-09T02:57:54.139Z,32.42
2023-04-09T02:58:54.586Z,32.43
2023-04-09T02:59:54.208Z,38.68
2023-04-09T03:00:54.291Z,35.39
2023-04-09T03:01:54.403Z,33.83
2023-04-09T03:02:54.431Z,31.66
2023-04-09T03:03:54.616Z,28.91
2023-04-09T03:04:54.387Z,25.96
2023-04-09T03:05:54.429Z,31.31
2023-04-09T03:06:54.483Z,31.11
2023-04-09T03:07:54.560Z,32.69
2023-04-09T03:08:54.855Z,32.92
2023-04-09T03:09:54.558Z,41.84
2023-04-09T03:10:55.353Z,32.22
2023-04-09T03:11:54.649Z,35.35
2023-04-09T03:12:54.673Z,41.66
2023-04-09T03:13:54.712Z,35.12
2023-04-09T03:14:54.739Z,35.26
2023-04-09T03:15:54.808Z,29.31
2023-04-09T03:16:54.814Z,32.79
2023-04-09T03:17:54.912Z,40.07
2023-04-09T03:18:55.360Z,33.24
2023-04-09T03:19:54.923Z,30.60
2023-04-09T03:20:54.990Z,31.89
2023-04-09T03:21:55.002Z,34.50
2023-04-09T03:22:55.074Z,35.84
2023-04-09T03:23:55.085Z,33.45
2023-04-09T03:24:55.120Z,36.45
2023-04-09T03:25:55.859Z,34.74
2023-04-09T03:26:55.865Z,38.98
2023-04-09T03:27:55.209Z,31.40
2023-04-09T03:28:55.375Z,29.43
2023-04-09T03:29:55.267Z,34.55
2023-04-09T03:30:55.325Z,30.77
2023-04-09T03:31:55.336Z,27.46
2023-04-09T03:32:55.435Z,34.90
2023-04-09T03:33:55.401Z,35.49
2023-04-09T03:34:55.435Z,38.40
2023-04-09T03:35:55.536Z,27.64
2023-04-09T03:36:55.508Z,29.86
2023-04-09T03:37:56.363Z,31.46
2023-04-09T03:38:55.594Z,36.64
2023-04-09T03:39:55.600Z,34.01
2023-04-09T03:40:55.630Z,36.91
2023-04-09T03:41:55.661Z,37.07
2023-04-09T03:42:55.694Z,30.00
2023-04-09T03:43:55.753Z,29.83
2023-04-09T03:44:56.372Z,32.11
2023-04-09T03:45:55.797Z,31.39
2023-04-09T03:46:55.947Z,33.15
2023-04-09T03:47:57.812Z,36.22
2023-04-09T03:48:55.860Z,38.62
2023-04-09T03:49:55.866Z,35.73
2023-04-09T03:50:55.848Z,32.51
2023-04-09T03:51:55.835Z,32.72
2023-04-09T03:52:55.845Z,35.78
2023-04-09T03:53:55.827Z,35.80
2023-04-09T03:54:55.849Z,35.04
2023-04-09T03:55:55.814Z,44.55
2023-04-09T03:56:55.803Z,37.70
2023-04-09T03:57:55.798Z,34.89
2023-04-09T03:58:55.793Z,38.62
2023-04-09T03:59:55.784Z,35.11
2023-04-09T04:00:55.774Z,36.00
2023-04-09T04:01:55.826Z,30.16
2023-04-09T04:02:56.006Z,32.45
2023-04-09T04:03:55.866Z,36.32
2023-04-09T04:04:55.754Z,29.53
2023-04-09T04:05:55.732Z,29.32
2023-04-09T04:06:55.724Z,29.93
2023-04-09T04:07:55.724Z,42.81
2023-04-09T04:08:55.727Z,32.30
2023-04-09T04:09:55.709Z,35.16
2023-04-09T04:10:55.719Z,37.58
2023-04-09T04:11:55.694Z,31.97
2023-04-09T04:12:55.722Z,30.08
2023-04-09T04:13:55.677Z,38.30
2023-04-09T04:14:55.679Z,35.13
2023-04-09T04:15:55.678Z,32.63
2023-04-09T04:16:55.659Z,32.61
2023-04-09T04:17:55.700Z,31.63
2023-04-09T04:18:55.662Z,31.50
2023-04-09T04:19:55.713Z,39.38
2023-04-09T04:20:55.714Z,31.67
2023-04-09T04:21:55.755Z,34.12
2023-04-09T04:22:55.780Z,32.46
2023-04-09T04:23:55.817Z,33.89
2023-04-09T04:24:55.844Z,37.92
2023-04-09T04:25:55.867Z,29.58
2023-04-09T04:26:56.911Z,36.40
2023-04-09T04:27:55.943Z,41.35
2023-04-09T04:28:56.330Z,30.49
2023-04-09T04:29:56.370Z,29.45
2023-04-09T04:30:56.376Z,31.42
2023-04-09T04:31:56.430Z,31.58
2023-04-09T04:32:56.428Z,36.43
2023-04-09T04:33:56.369Z,32.63
2023-04-09T04:34:56.375Z,30.42
2023-04-09T04:35:56.416Z,35.86
2023-04-09T04:36:56.373Z,33.83
2023-04-09T04:37:56.377Z,33.20
2023-04-09T04:38:56.376Z,37.62
2023-04-09T04:39:56.379Z,34.25
2023-04-09T04:40:56.384Z,33.52
2023-04-09T04:41:56.373Z,35.14
2023-04-09T04:42:56.397Z,37.04
2023-04-09T04:43:56.449Z,34.33
2023-04-09T04:44:56.435Z,34.66
2023-04-09T04:45:56.497Z,28.84
2023-04-09T04:46:56.507Z,37.72
2023-04-09T04:47:57.419Z,36.26
2023-04-09T04:48:56.558Z,31.76
2023-04-09T04:49:56.593Z,31.63
2023-04-09T04:50:56.621Z,37.21
2023-04-09T04:51:56.658Z,38.10
2023-04-09T04:52:56.689Z,32.65
2023-04-09T04:53:57.397Z,30.73
2023-04-09T04:54:56.758Z,39.33
2023-04-09T04:55:56.779Z,36.39
2023-04-09T04:56:56.871Z,37.61
2023-04-09T04:57:56.841Z,36.32
2023-04-09T04:58:56.896Z,34.10
2023-04-09T04:59:56.908Z,40.91
2023-04-09T05:00:56.949Z,35.71
2023-04-09T05:01:57.071Z,40.65
2023-04-09T05:02:57.499Z,38.67
2023-04-09T05:03:57.487Z,35.40
2023-04-09T05:04:57.387Z,32.22
2023-04-09T05:05:57.391Z,34.34
2023-04-09T05:06:57.388Z,29.68
2023-04-09T05:07:57.387Z,35.76
2023-04-09T05:08:57.397Z,36.79
2023-04-09T05:09:57.900Z,36.28
2023-04-09T05:10:57.406Z,31.36
2023-04-09T05:11:57.393Z,34.22
2023-04-09T05:12:57.395Z,32.79
2023-04-09T05:13:57.401Z,35.94
2023-04-09T05:14:59.926Z,32.06
2023-04-09T05:15:59.906Z,37.38
2023-04-09T05:16:57.493Z,37.64
2023-04-09T05:17:57.407Z,37.42
2023-04-09T05:18:57.396Z,38.11
2023-04-09T05:19:57.391Z,39.25
2023-04-09T05:20:57.391Z,36.91
2023-04-09T05:21:57.397Z,31.44
2023-04-09T05:22:57.403Z,36.65
2023-04-09T05:23:57.402Z,38.19
2023-04-09T05:24:57.393Z,31.21
2023-04-09T05:25:57.404Z,32.39
2023-04-09T05:26:57.401Z,39.24
2023-04-09T05:27:57.427Z,36.00
2023-04-09T05:28:57.399Z,34.23
2023-04-09T05:29:59.586Z,35.97
2023-04-09T05:30:57.485Z,36.18
2023-04-09T05:31:57.395Z,34.28
2023-04-09T05:32:57.427Z,32.45
2023-04-09T05:33:57.412Z,33.92
2023-04-09T05:34:57.402Z,33.86
2023-04-09T05:35:57.426Z,39.20
2023-04-09T05:36:57.401Z,35.98
2023-04-09T05:37:57.407Z,34.52
2023-04-09T05:38:57.409Z,34.57
2023-04-09T05:39:57.424Z,39.28
2023-04-09T05:40:57.416Z,35.65
2023-04-09T05:41:59.918Z,39.44
2023-04-09T05:42:57.419Z,35.05
2023-04-09T05:44:00.493Z,34.18
2023-04-09T05:44:57.419Z,39.68
2023-04-09T05:45:57.432Z,40.92
2023-04-09T05:46:57.951Z,35.53
2023-04-09T05:47:57.444Z,43.22
2023-04-09T05:48:57.418Z,37.80
2023-04-09T05:49:57.417Z,35.99
2023-04-09T05:50:59.021Z,33.83
2023-04-09T05:51:57.373Z,34.16
2023-04-09T05:52:57.017Z,34.87
2023-04-09T05:53:56.998Z,35.41
2023-04-09T05:54:56.995Z,34.85
2023-04-09T05:55:57.003Z,34.62
2023-04-09T05:56:56.975Z,37.06
2023-04-09T05:57:56.973Z,36.17
2023-04-09T05:58:56.973Z,32.24
2023-04-09T05:59:56.977Z,40.56
2023-04-09T06:00:57.927Z,31.09
2023-04-09T06:01:57.976Z,30.84
2023-04-09T06:03:00.093Z,35.55
2023-04-09T06:03:58.453Z,35.63
2023-04-09T06:04:57.031Z,35.74
2023-04-09T06:05:56.920Z,36.79
2023-04-09T06:06:56.909Z,36.10
2023-04-09T06:07:56.907Z,36.18
2023-04-09T06:08:56.902Z,31.61
2023-04-09T06:09:56.894Z,38.94
2023-04-09T06:10:56.888Z,32.13
2023-04-09T06:11:56.876Z,30.78
2023-04-09T06:12:59.500Z,36.36
2023-04-09T06:13:56.869Z,36.41
2023-04-09T06:14:56.872Z,37.15
2023-04-09T06:15:57.491Z,33.95
2023-04-09T06:16:56.845Z,33.83
2023-04-09T06:17:59.336Z,37.00
2023-04-09T06:18:56.861Z,34.33
2023-04-09T06:19:56.827Z,36.70
2023-04-09T06:20:56.812Z,37.06
2023-04-09T06:21:56.816Z,36.38
2023-04-09T06:22:56.800Z,31.86
2023-04-09T06:23:56.793Z,39.59
2023-04-09T06:24:56.787Z,33.32
2023-04-09T06:25:56.778Z,35.79
2023-04-09T06:26:56.775Z,35.42
2023-04-09T06:27:56.785Z,33.41
2023-04-09T06:28:56.766Z,28.86
2023-04-09T06:29:56.761Z,41.16
2023-04-09T06:30:56.770Z,38.42
2023-04-09T06:31:56.735Z,32.74
2023-04-09T06:32:56.749Z,29.97
2023-04-09T06:33:56.885Z,34.08
2023-04-09T06:34:56.748Z,37.93
2023-04-09T06:35:56.767Z,28.20
2023-04-09T06:36:56.708Z,30.87
2023-04-09T06:37:56.707Z,35.63
2023-04-09T06:38:56.690Z,35.34
2023-04-09T06:40:00.868Z,31.29
2023-04-09T06:40:56.679Z,31.65
2023-04-09T06:41:56.666Z,32.42
2023-04-09T06:42:56.655Z,33.18
2023-04-09T06:43:56.650Z,35.41
2023-04-09T06:44:56.654Z,34.94
2023-04-09T06:45:56.638Z,33.31
2023-04-09T06:46:56.631Z,31.72
2023-04-09T06:47:57.499Z,34.62
2023-04-09T06:48:56.613Z,36.52
2023-04-09T06:49:56.607Z,39.45
2023-04-09T06:50:56.628Z,36.74
2023-04-09T06:51:56.600Z,31.31
2023-04-09T06:52:56.602Z,29.71
2023-04-09T06:53:57.534Z,31.33
2023-04-09T06:54:56.578Z,32.14
2023-04-09T06:55:57.442Z,33.56
2023-04-09T06:56:56.852Z,30.61
2023-04-09T06:57:57.686Z,34.80
2023-04-09T06:58:56.545Z,31.27
2023-04-09T06:59:56.560Z,31.55
2023-04-09T07:00:56.531Z,33.27
2023-04-09T07:01:57.493Z,31.58
2023-04-09T07:02:56.701Z,34.80
2023-04-09T07:03:57.021Z,34.55
2023-04-09T07:04:56.506Z,31.02
2023-04-09T07:05:56.548Z,31.07
2023-04-09T07:06:56.514Z,30.64
2023-04-09T07:07:56.506Z,30.63
2023-04-09T07:08:56.468Z,31.99
2023-04-09T07:09:57.455Z,35.55
2023-04-09T07:10:56.458Z,29.70
2023-04-09T07:11:56.466Z,34.46
2023-04-09T07:12:56.458Z,31.95
2023-04-09T07:13:56.994Z,31.26
2023-04-09T07:14:56.460Z,29.28
2023-04-09T07:15:56.547Z,33.21
2023-04-09T07:16:57.250Z,31.79
2023-04-09T07:17:56.463Z,30.83
2023-04-09T07:18:56.458Z,30.89
2023-04-09T07:19:56.472Z,29.44
2023-04-09T07:20:56.465Z,32.20
2023-04-09T07:21:56.464Z,30.04
2023-04-09T07:22:56.490Z,29.54
2023-04-09T07:23:56.458Z,30.02
2023-04-09T07:24:56.487Z,27.28
2023-04-09T07:25:56.464Z,30.72
2023-04-09T07:26:56.477Z,30.60
2023-04-09T07:27:56.465Z,28.72
2023-04-09T07:28:56.459Z,28.28
2023-04-09T07:29:56.466Z,31.95
2023-04-09T07:30:56.469Z,27.78
2023-04-09T07:31:56.535Z,28.90
2023-04-09T07:32:56.532Z,31.11
2023-04-09T07:33:56.471Z,29.12
2023-04-09T07:34:56.465Z,31.92
2023-04-09T07:35:56.511Z,30.84
2023-04-09T07:36:56.462Z,28.59
2023-04-09T07:37:56.464Z,29.04
2023-04-09T07:38:56.491Z,28.19
2023-04-09T07:39:56.474Z,28.06
2023-04-09T07:40:56.480Z,32.23
2023-04-09T07:41:56.495Z,30.16
2023-04-09T07:42:57.205Z,28.85
2023-04-09T07:43:56.479Z,25.69
2023-04-09T07:44:56.969Z,29.32
2023-04-09T07:45:56.970Z,29.71
2023-04-09T07:46:56.559Z,31.33
2023-04-09T07:47:56.544Z,28.41
2023-04-09T07:48:56.611Z,25.79
2023-04-09T07:50:10.972Z,28.39
2023-04-09T07:50:56.473Z,29.19
2023-04-09T07:51:56.473Z,30.55
2023-04-09T07:52:56.480Z,32.39
2023-04-09T07:53:56.481Z,33.75
2023-04-09T07:54:56.510Z,33.43
2023-04-09T07:55:56.476Z,34.71
2023-04-09T07:56:56.488Z,31.55
2023-04-09T07:57:56.486Z,33.36
2023-04-09T07:58:56.493Z,31.44
2023-04-09T07:59:56.476Z,30.75
2023-04-09T08:00:56.483Z,28.91
2023-04-09T08:01:56.591Z,29.29
2023-04-09T08:02:56.572Z,32.30
2023-04-09T08:03:56.601Z,28.47
2023-04-09T08:04:56.721Z,32.44
2023-04-09T08:05:56.480Z,31.36
2023-04-09T08:06:56.486Z,31.42
2023-04-09T08:07:56.483Z,28.86
2023-04-09T08:08:56.488Z,29.44
2023-04-09T08:09:56.487Z,30.73
2023-04-09T08:10:56.508Z,29.39
2023-04-09T08:11:56.489Z,28.90
2023-04-09T08:12:56.493Z,32.35
2023-04-09T08:13:58.983Z,30.46
2023-04-09T08:14:56.492Z,30.69
2023-04-09T08:15:56.546Z,31.32
2023-04-09T08:16:56.983Z,31.55
2023-04-09T08:17:56.529Z,33.86
2023-04-09T08:18:56.501Z,33.06
2023-04-09T08:19:56.528Z,34.41
2023-04-09T08:20:56.492Z,32.85
2023-04-09T08:21:56.508Z,30.65
2023-04-09T08:22:56.492Z,30.04
2023-04-09T08:23:56.992Z,30.64
2023-04-09T08:24:56.501Z,29.97
2023-04-09T08:25:56.493Z,32.20
2023-04-09T08:26:56.517Z,31.85
2023-04-09T08:27:56.538Z,32.63
2023-04-09T08:28:56.497Z,30.22
2023-04-09T08:29:56.505Z,30.22
2023-04-09T08:30:56.512Z,31.22
2023-04-09T08:31:57.027Z,31.15
2023-04-09T08:32:56.570Z,31.83
2023-04-09T08:33:56.518Z,34.70
2023-04-09T08:34:56.506Z,32.13
2023-04-09T08:35:56.498Z,26.93
2023-04-09T08:36:56.502Z,28.54
2023-04-09T08:37:56.461Z,30.95
2023-04-09T08:38:56.607Z,31.55
2023-04-09T08:39:56.471Z,28.66
2023-04-09T08:40:56.101Z,28.68
2023-04-09T08:41:56.079Z,27.80
2023-04-09T08:42:56.097Z,25.85
2023-04-09T08:43:58.390Z,28.88
2023-04-09T08:44:56.059Z,29.00
2023-04-09T08:45:56.121Z,25.86
2023-04-09T08:46:58.365Z,28.06
2023-04-09T08:47:56.125Z,29.19
2023-04-09T08:48:56.293Z,29.76
2023-04-09T08:49:56.036Z,29.24
2023-04-09T08:50:56.012Z,29.76
2023-04-09T08:51:56.009Z,30.42
2023-04-09T08:52:56.000Z,30.13
2023-04-09T08:53:55.991Z,25.00
2023-04-09T08:54:56.033Z,30.39
2023-04-09T08:55:55.973Z,27.39
2023-04-09T08:56:55.963Z,28.03
2023-04-09T08:57:55.961Z,28.28
2023-04-09T08:58:56.485Z,28.98
2023-04-09T08:59:55.963Z,30.85
2023-04-09T09:00:56.004Z,31.25
2023-04-09T09:01:55.989Z,28.84
2023-04-09T09:02:56.127Z,29.63
2023-04-09T09:03:56.171Z,29.56
2023-04-09T09:04:55.911Z,29.21
2023-04-09T09:05:55.904Z,31.01
2023-04-09T09:06:56.772Z,31.11
2023-04-09T09:07:55.896Z,27.35
2023-04-09T09:08:55.873Z,31.31
2023-04-09T09:09:55.883Z,29.93
2023-04-09T09:10:55.860Z,28.34
2023-04-09T09:11:55.860Z,28.46
2023-04-09T09:12:55.838Z,31.79
2023-04-09T09:13:55.835Z,30.49
2023-04-09T09:14:55.861Z,30.15
2023-04-09T09:15:55.818Z,30.86
2023-04-09T09:16:56.670Z,28.72
2023-04-09T09:17:55.952Z,30.73
2023-04-09T09:18:56.164Z,26.56
2023-04-09T09:19:55.803Z,30.03
2023-04-09T09:20:56.513Z,30.19
2023-04-09T09:21:55.786Z,29.90
2023-04-09T09:22:55.961Z,30.64
2023-04-09T09:23:55.775Z,30.88
2023-04-09T09:24:55.776Z,30.81
2023-04-09T09:25:56.521Z,31.03
2023-04-09T09:26:55.813Z,29.91
2023-04-09T09:27:56.529Z,28.97
2023-04-09T09:28:56.534Z,28.68
2023-04-09T09:29:55.724Z,28.32
2023-04-09T09:30:55.751Z,30.09
2023-04-09T09:31:56.040Z,29.95
2023-04-09T09:32:55.725Z,30.78
2023-04-09T09:33:55.693Z,33.40
2023-04-09T09:34:55.699Z,30.38
2023-04-09T09:35:55.690Z,30.19
2023-04-09T09:36:55.670Z,30.21
2023-04-09T09:37:55.673Z,30.46
2023-04-09T09:38:55.915Z,32.20
2023-04-09T09:39:55.646Z,31.44
2023-04-09T09:40:55.640Z,30.05
2023-04-09T09:41:55.644Z,33.72
2023-04-09T09:42:55.630Z,29.68
2023-04-09T09:43:55.708Z,31.32
2023-04-09T09:44:55.629Z,31.00
2023-04-09T09:45:55.652Z,29.90
2023-04-09T09:46:55.624Z,30.58
2023-04-09T09:47:55.689Z,29.50
2023-04-09T09:48:55.611Z,31.63
2023-04-09T09:49:55.593Z,30.55
2023-04-09T09:50:55.576Z,29.54
2023-04-09T09:51:55.583Z,30.20
2023-04-09T09:52:55.567Z,28.38
2023-04-09T09:53:55.544Z,32.18
2023-04-09T09:54:55.552Z,32.81
2023-04-09T09:55:55.557Z,30.14
2023-04-09T09:56:55.859Z,31.74
2023-04-09T09:57:55.640Z,30.51
2023-04-09T09:58:55.699Z,31.54
2023-04-09T09:59:55.749Z,29.11
2023-04-09T10:00:55.817Z,31.11
2023-04-09T10:01:55.942Z,30.49
2023-04-09T10:02:56.221Z,29.09
2023-04-09T10:03:56.032Z,31.20
2023-04-09T10:04:56.015Z,31.23
2023-04-09T10:05:56.042Z,31.95
2023-04-09T10:06:56.077Z,28.23
2023-04-09T10:07:56.122Z,28.63
2023-04-09T10:08:57.035Z,28.83
2023-04-09T10:09:56.560Z,27.69
2023-04-09T10:10:56.562Z,28.97
2023-04-09T10:11:56.558Z,28.12
2023-04-09T10:12:56.542Z,29.74
2023-04-09T10:13:56.545Z,28.73
2023-04-09T10:14:56.548Z,30.13
2023-04-09T10:15:56.598Z,28.01
2023-04-09T10:16:57.561Z,31.22
2023-04-09T10:17:56.632Z,28.91
2023-04-09T10:18:56.697Z,30.64
2023-04-09T10:19:56.700Z,31.73
2023-04-09T10:20:56.750Z,28.80
2023-04-09T10:21:56.772Z,28.01
2023-04-09T10:22:56.824Z,32.22
2023-04-09T10:23:56.863Z,31.33
2023-04-09T10:24:56.922Z,28.67
2023-04-09T10:25:56.911Z,28.80
2023-04-09T10:26:56.948Z,30.68
2023-04-09T10:27:56.960Z,31.32
2023-04-09T10:28:56.949Z,29.30
2023-04-09T10:29:56.962Z,27.33
2023-04-09T10:30:56.978Z,29.71
2023-04-09T10:31:56.961Z,30.91
2023-04-09T10:32:56.982Z,31.68
2023-04-09T10:33:56.962Z,32.33
2023-04-09T10:34:56.988Z,30.48
2023-04-09T10:35:57.582Z,29.81
2023-04-09T10:36:56.978Z,29.98
2023-04-09T10:37:56.972Z,29.52
2023-04-09T10:38:56.984Z,29.68
2023-04-09T10:39:56.980Z,30.47
2023-04-09T10:40:56.981Z,26.90
2023-04-09T10:41:56.968Z,30.44
2023-04-09T10:42:56.966Z,27.49
2023-04-09T10:43:56.971Z,31.57
2023-04-09T10:44:56.963Z,32.53
2023-04-09T10:45:56.961Z,28.63
2023-04-09T10:46:57.120Z,32.28
2023-04-09T10:47:56.971Z,28.89
2023-04-09T10:48:56.965Z,31.29
2023-04-09T10:49:56.966Z,31.92
2023-04-09T10:50:56.991Z,32.03
2023-04-09T10:51:57.566Z,28.57
2023-04-09T10:52:56.972Z,31.61
2023-04-09T10:53:56.974Z,31.87
2023-04-09T10:54:56.978Z,27.61
2023-04-09T10:55:57.012Z,28.63
2023-04-09T10:56:57.571Z,30.06
2023-04-09T10:57:56.970Z,27.53
2023-04-09T10:58:56.972Z,27.73
2023-04-09T10:59:56.980Z,31.35
2023-04-09T11:00:56.982Z,34.27
2023-04-09T11:01:57.029Z,30.91
2023-04-09T11:02:57.102Z,33.58
2023-04-09T11:03:56.969Z,31.34
2023-04-09T11:04:57.167Z,32.53
2023-04-09T11:05:56.986Z,35.41
2023-04-09T11:06:57.011Z,32.43
2023-04-09T11:07:57.000Z,31.06
2023-04-09T11:08:57.005Z,33.03
2023-04-09T11:09:57.070Z,32.05
2023-04-09T11:10:57.015Z,34.81
2023-04-09T11:11:57.029Z,33.93
2023-04-09T11:12:57.024Z,31.17
2023-04-09T11:13:57.031Z,29.66
2023-04-09T11:14:57.048Z,31.70
2023-04-09T11:15:57.204Z,28.93
2023-04-09T11:16:57.077Z,32.28
2023-04-09T11:17:57.161Z,32.66
2023-04-09T11:18:57.105Z,31.64
2023-04-09T11:19:57.112Z,33.64
2023-04-09T11:20:57.132Z,32.77
2023-04-09T11:21:57.138Z,32.63
2023-04-09T11:22:57.599Z,32.75
2023-04-09T11:23:57.154Z,31.26
2023-04-09T11:24:57.545Z,31.65
2023-04-09T11:25:58.069Z,32.33
2023-04-09T11:26:57.581Z,32.36
2023-04-09T11:27:57.620Z,31.39
2023-04-09T11:28:57.590Z,30.85
2023-04-09T11:29:57.597Z,30.88
2023-04-09T11:30:57.614Z,33.56
2023-04-09T11:31:57.680Z,31.29
2023-04-09T11:32:57.746Z,30.85
2023-04-09T11:33:57.589Z,32.37
2023-04-09T11:34:57.586Z,30.98
2023-04-09T11:35:57.655Z,31.76
2023-04-09T11:36:57.587Z,30.71
2023-04-09T11:37:57.585Z,34.72
2023-04-09T11:38:57.625Z,29.44
2023-04-09T11:39:58.014Z,30.41
2023-04-09T11:40:57.597Z,30.01
2023-04-09T11:41:57.586Z,28.04
2023-04-09T11:42:57.597Z,27.67
2023-04-09T11:43:57.588Z,25.96
2023-04-09T11:44:57.599Z,27.06
2023-04-09T11:45:57.787Z,29.27
2023-04-09T11:46:57.672Z,28.38
2023-04-09T11:47:57.630Z,31.15
2023-04-09T11:48:57.595Z,32.91
2023-04-09T11:49:57.599Z,27.32
2023-04-09T11:50:57.591Z,27.18
2023-04-09T11:51:57.589Z,31.33
2023-04-09T11:52:57.603Z,25.84
2023-04-09T11:53:57.620Z,27.87
2023-04-09T11:54:57.660Z,27.46
2023-04-09T11:55:57.681Z,26.57
2023-04-09T11:56:57.669Z,28.57
2023-04-09T11:57:57.680Z,27.69
2023-04-09T11:58:57.696Z,27.67
2023-04-09T11:59:57.717Z,29.14
2023-04-09T12:00:58.636Z,29.54
2023-04-09T12:01:58.210Z,29.65
2023-04-09T12:02:57.989Z,28.12
2023-04-09T12:03:57.894Z,28.63
2023-04-09T12:04:57.883Z,31.45
2023-04-09T12:05:57.802Z,33.76
2023-04-09T12:06:57.827Z,33.16
2023-04-09T12:07:57.851Z,30.36
2023-04-09T12:08:57.862Z,29.93
2023-04-09T12:09:57.894Z,30.59
2023-04-09T12:10:57.916Z,31.47
2023-04-09T12:11:57.912Z,27.39
2023-04-09T12:13:00.589Z,29.54
2023-04-09T12:13:57.920Z,37.82
2023-04-09T12:14:57.915Z,30.63
2023-04-09T12:15:59.160Z,33.16
2023-04-09T12:16:58.663Z,31.86
2023-04-09T12:17:57.969Z,35.08
2023-04-09T12:18:57.886Z,32.00
2023-04-09T12:19:58.596Z,32.96
2023-04-09T12:20:57.866Z,30.41
2023-04-09T12:21:57.872Z,29.09
2023-04-09T12:22:57.885Z,33.60
2023-04-09T12:23:57.918Z,30.43
2023-04-09T12:24:57.934Z,30.48
2023-04-09T12:25:57.960Z,33.45
2023-04-09T12:26:58.019Z,28.94
2023-04-09T12:27:57.999Z,36.36
2023-04-09T12:28:58.026Z,30.38
2023-04-09T12:29:58.044Z,31.84
2023-04-09T12:30:58.066Z,30.83
2023-04-09T12:31:58.120Z,30.92
2023-04-09T12:32:58.162Z,27.33
2023-04-09T12:33:58.129Z,27.30
2023-04-09T12:34:58.154Z,34.82
2023-04-09T12:35:58.241Z,31.63
2023-04-09T12:36:58.219Z,32.53
2023-04-09T12:37:58.218Z,30.20
2023-04-09T12:38:58.240Z,33.51
2023-04-09T12:39:58.268Z,38.87
2023-04-09T12:40:58.301Z,32.33
2023-04-09T12:41:58.320Z,32.64
2023-04-09T12:42:58.643Z,31.39
2023-04-09T12:43:58.375Z,30.14
2023-04-09T12:44:59.099Z,30.97
2023-04-09T12:45:58.478Z,29.90
2023-04-09T12:46:58.472Z,34.64
2023-04-09T12:47:59.132Z,30.28
2023-04-09T12:48:58.503Z,32.45
2023-04-09T12:49:58.535Z,31.79
2023-04-09T12:50:58.567Z,30.27
2023-04-09T12:51:58.612Z,29.85
2023-04-09T12:52:58.630Z,31.98